createdAt,value
2023-01-04T00:00:58.791Z,1012.84
2023-01-04T00:01:58.783Z,1012.82
2023-01-04T00:02:58.821Z,1012.83
2023-01-04T00:03:58.783Z,1012.84
2023-01-04T00:04:58.687Z,1012.86
2023-01-04T00:05:58.675Z,1012.85
2023-01-04T00:06:58.666Z,1012.83
2023-01-04T00:07:58.653Z,1012.79
2023-01-04T00:08:58.656Z,1012.78
2023-01-04T00:09:58.624Z,1012.72
2023-01-04T00:10:58.612Z,1012.68
2023-01-04T00:11:58.610Z,1012.64
2023-01-04T00:12:58.592Z,1012.65
2023-01-04T00:13:58.587Z,1012.68
2023-01-04T00:14:58.584Z,1012.66
2023-01-04T00:16:05.387Z,1012.61
2023-01-04T00:16:59.535Z,1012.63
2023-01-04T00:17:58.535Z,1012.65
2023-01-04T00:18:58.517Z,1012.61
2023-01-04T00:19:58.501Z,1012.60
2023-01-04T00:20:58.487Z,1012.55
2023-01-04T00:21:58.469Z,1012.53
2023-01-04T00:22:58.476Z,1012.51
2023-01-04T00:23:58.451Z,1012.45
2023-01-04T00:24:58.431Z,1012.43
2023-01-04T00:25:58.424Z,1012.43
2023-01-04T00:26:58.466Z,1012.46
2023-01-04T00:27:58.403Z,1012.41
2023-01-04T00:28:58.417Z,1012.40
2023-01-04T00:29:58.364Z,1012.32
2023-01-04T00:30:58.421Z,1012.37
2023-01-04T00:31:58.341Z,1012.38
2023-01-04T00:32:58.330Z,1012.31
2023-01-04T00:33:58.318Z,1012.24
2023-01-04T00:34:58.310Z,1012.21
2023-01-04T00:35:58.294Z,1012.18
2023-01-04T00:36:58.324Z,1012.14
2023-01-04T00:37:58.289Z,1012.11
2023-01-04T00:38:58.272Z,1012.12
2023-01-04T00:39:58.261Z,1012.14
2023-01-04T00:40:58.235Z,1012.14
2023-01-04T00:42:00.050Z,1012.21
2023-01-04T00:42:58.205Z,1012.20
2023-01-04T00:43:58.221Z,1012.17
2023-01-04T00:44:58.184Z,1012.16
2023-01-04T00:45:58.190Z,1012.14
2023-01-04T00:46:58.179Z,1012.11
2023-01-04T00:47:58.155Z,1012.06
2023-01-04T00:49:00.557Z,1012.05
2023-01-04T00:49:58.108Z,1012.03
2023-01-04T00:50:58.103Z,1012.01
2023-01-04T00:51:58.127Z,1012.00
2023-01-04T00:52:58.076Z,1012.00
2023-01-04T00:53:58.088Z,1011.97
2023-01-04T00:54:58.064Z,1011.98
2023-01-04T00:55:58.036Z,1011.94
2023-01-04T00:56:58.023Z,1011.94
2023-01-04T00:57:58.014Z,1011.85
2023-01-04T00:58:58.009Z,1011.81
2023-01-04T00:59:57.982Z,1011.81
2023-01-04T01:00:57.991Z,1011.79
2023-01-04T01:01:58.110Z,1011.83
2023-01-04T01:02:58.175Z,1011.79
2023-01-04T01:03:58.143Z,1011.75
2023-01-04T01:04:57.925Z,1011.76
2023-01-04T01:05:57.901Z,1011.69
2023-01-04T01:06:57.894Z,1011.65
2023-01-04T01:07:57.873Z,1011.63
2023-01-04T01:08:57.882Z,1011.69
2023-01-04T01:09:57.857Z,1011.69
2023-01-04T01:10:57.843Z,1011.72
2023-01-04T01:11:57.832Z,1011.74
2023-01-04T01:12:57.832Z,1011.76
2023-01-04T01:13:57.848Z,1011.78
2023-01-04T01:15:00.572Z,1011.74
2023-01-04T01:15:57.852Z,1011.75
2023-01-04T01:16:58.819Z,1011.80
2023-01-04T01:17:57.750Z,1011.80
2023-01-04T01:18:57.772Z,1011.83
2023-01-04T01:19:57.723Z,1011.86
2023-01-04T01:20:57.728Z,1011.84
2023-01-04T01:21:57.956Z,1011.83
2023-01-04T01:22:57.692Z,1011.83
2023-01-04T01:23:57.681Z,1011.86
2023-01-04T01:24:57.710Z,1011.82
2023-01-04T01:25:57.657Z,1011.85
2023-01-04T01:26:57.654Z,1011.83
2023-01-04T01:27:57.622Z,1011.84
2023-01-04T01:28:57.633Z,1011.84
2023-01-04T01:29:57.608Z,1011.85
2023-01-04T01:30:57.636Z,1011.87
2023-01-04T01:31:57.678Z,1011.79
2023-01-04T01:32:57.585Z,1011.74
2023-01-04T01:33:57.579Z,1011.76
2023-01-04T01:34:57.548Z,1011.72
2023-01-04T01:35:57.518Z,1011.74
2023-01-04T01:36:57.515Z,1011.75
2023-01-04T01:37:57.500Z,1011.70
2023-01-04T01:38:57.516Z,1011.70
2023-01-04T01:39:57.474Z,1011.68
2023-01-04T01:40:57.468Z,1011.64
2023-01-04T01:41:57.469Z,1011.68
2023-01-04T01:42:57.471Z,1011.68
2023-01-04T01:43:57.463Z,1011.67
2023-01-04T01:44:57.407Z,1011.65
2023-01-04T01:45:57.457Z,1011.62
2023-01-04T01:46:57.449Z,1011.63
2023-01-04T01:47:57.369Z,1011.66
2023-01-04T01:48:57.401Z,1011.56
2023-01-04T01:49:57.336Z,1011.64
2023-01-04T01:50:57.346Z,1011.57
2023-01-04T01:51:57.315Z,1011.57
2023-01-04T01:52:57.353Z,1011.50
2023-01-04T01:53:57.305Z,1011.51
2023-01-04T01:54:57.321Z,1011.44
2023-01-04T01:55:57.273Z,1011.40
2023-01-04T01:56:57.261Z,1011.43
2023-01-04T01:57:57.235Z,1011.41
2023-01-04T01:58:57.256Z,1011.43
2023-01-04T01:59:57.208Z,1011.35
2023-01-04T02:00:57.232Z,1011.31
2023-01-04T02:01:57.329Z,1011.27
2023-01-04T02:02:57.491Z,1011.30
2023-01-04T02:03:57.232Z,1011.25
2023-01-04T02:04:57.158Z,1011.25
2023-01-04T02:05:57.144Z,1011.19
2023-01-04T02:06:57.168Z,1011.20
2023-01-04T02:07:57.129Z,1011.19
2023-01-04T02:08:57.115Z,1011.22
2023-01-04T02:09:57.090Z,1011.17
2023-01-04T02:10:57.083Z,1011.17
2023-01-04T02:11:57.065Z,1011.17
2023-01-04T02:12:57.063Z,1011.14
2023-01-04T02:13:57.057Z,1011.12
2023-01-04T02:14:57.033Z,1011.11
2023-01-04T02:15:57.047Z,1011.14
2023-01-04T02:16:57.030Z,1011.11
2023-01-04T02:17:56.995Z,1011.12
2023-01-04T02:18:56.983Z,1011.11
2023-01-04T02:19:56.960Z,1011.05
2023-01-04T02:20:56.960Z,1011.03
2023-01-04T02:21:56.941Z,1011.02
2023-01-04T02:22:56.953Z,1011.00
2023-01-04T02:23:56.921Z,1010.98
2023-01-04T02:24:56.923Z,1010.97
2023-01-04T02:25:56.882Z,1010.93
2023-01-04T02:26:56.907Z,1010.97
2023-01-04T02:27:56.868Z,1010.93
2023-01-04T02:28:56.860Z,1010.87
2023-01-04T02:29:56.828Z,1010.89
2023-01-04T02:30:56.866Z,1010.88
2023-01-04T02:31:56.950Z,1010.88
2023-01-04T02:32:56.799Z,1010.81
2023-01-04T02:33:56.803Z,1010.85
2023-01-04T02:34:59.048Z,1010.87
2023-01-04T02:35:56.772Z,1010.83
2023-01-04T02:36:56.749Z,1010.82
2023-01-04T02:37:56.733Z,1010.75
2023-01-04T02:38:56.739Z,1010.70
2023-01-04T02:39:56.732Z,1010.71
2023-01-04T02:40:56.711Z,1010.72
2023-01-04T02:41:56.680Z,1010.67
2023-01-04T02:42:56.687Z,1010.62
2023-01-04T02:43:56.717Z,1010.64
2023-01-04T02:44:56.648Z,1010.61
2023-01-04T02:45:56.629Z,1010.56
2023-01-04T02:46:56.678Z,1010.58
2023-01-04T02:47:56.608Z,1010.48
2023-01-04T02:48:56.614Z,1010.49
2023-01-04T02:50:00.717Z,1010.45
2023-01-04T02:50:57.590Z,1010.41
2023-01-04T02:51:56.569Z,1010.39
2023-01-04T02:52:56.546Z,1010.45
2023-01-04T02:53:56.551Z,1010.40
2023-01-04T02:54:56.525Z,1010.44
2023-01-04T02:55:56.531Z,1010.41
2023-01-04T02:57:02.650Z,1010.34
2023-01-04T02:57:57.467Z,1010.35
2023-01-04T02:58:56.509Z,1010.32
2023-01-04T02:59:56.452Z,1010.30
2023-01-04T03:00:56.440Z,1010.27
2023-01-04T03:01:56.540Z,1010.28
2023-01-04T03:02:56.493Z,1010.24
2023-01-04T03:03:56.482Z,1010.29
2023-01-04T03:04:56.399Z,1010.33
2023-01-04T03:05:56.375Z,1010.13
2023-01-04T03:06:56.367Z,1010.14
2023-01-04T03:07:56.365Z,1010.13
2023-01-04T03:08:56.377Z,1009.99
2023-01-04T03:09:56.328Z,1010.00
2023-01-04T03:10:56.315Z,1010.02
2023-01-04T03:11:56.330Z,1009.96
2023-01-04T03:12:56.307Z,1009.98
2023-01-04T03:13:56.309Z,1010.02
2023-01-04T03:14:56.270Z,1010.01
2023-01-04T03:15:56.286Z,1010.01
2023-01-04T03:16:56.244Z,1010.05
2023-01-04T03:17:56.238Z,1010.06
2023-01-04T03:18:56.226Z,1010.05
2023-01-04T03:19:56.209Z,1010.00
2023-01-04T03:20:56.191Z,1010.02
2023-01-04T03:21:56.166Z,1010.07
2023-01-04T03:22:56.192Z,1009.99
2023-01-04T03:23:56.164Z,1010.00
2023-01-04T03:24:56.134Z,1010.00
2023-01-04T03:25:56.113Z,1009.97
2023-01-04T03:26:56.115Z,1009.97
2023-01-04T03:27:56.103Z,1009.94
2023-01-04T03:28:56.098Z,1009.91
2023-01-04T03:29:56.080Z,1009.86
2023-01-04T03:30:56.111Z,1009.92
2023-01-04T03:31:56.184Z,1009.83
2023-01-04T03:32:56.034Z,1009.82
2023-01-04T03:33:56.040Z,1009.82
2023-01-04T03:34:56.032Z,1009.81
2023-01-04T03:35:55.991Z,1009.77
2023-01-04T03:36:56.013Z,1009.78
2023-01-04T03:37:55.972Z,1009.76
2023-01-04T03:38:55.971Z,1009.75
2023-01-04T03:39:55.944Z,1009.81
2023-01-04T03:40:55.947Z,1009.71
2023-01-04T03:41:55.926Z,1009.78
2023-01-04T03:42:55.903Z,1009.70
2023-01-04T03:43:55.919Z,1009.70
2023-01-04T03:44:55.883Z,1009.74
2023-01-04T03:45:55.879Z,1009.73
2023-01-04T03:46:55.905Z,1009.75
2023-01-04T03:47:55.847Z,1009.70
2023-01-04T03:48:55.850Z,1009.70
2023-01-04T03:49:55.818Z,1009.64
2023-01-04T03:50:55.800Z,1009.62
2023-01-04T03:51:55.787Z,1009.58
2023-01-04T03:52:55.772Z,1009.59
2023-01-04T03:53:55.786Z,1009.62
2023-01-04T03:54:55.761Z,1009.54
2023-01-04T03:55:55.753Z,1009.54
2023-01-04T03:56:55.722Z,1009.45
2023-01-04T03:57:55.712Z,1009.49
2023-01-04T03:58:55.698Z,1009.55
2023-01-04T03:59:55.681Z,1009.50
2023-01-04T04:00:55.702Z,1009.49
2023-01-04T04:01:55.717Z,1009.39
2023-01-04T04:02:55.647Z,1009.44
2023-01-04T04:03:55.736Z,1009.35
2023-01-04T04:04:55.618Z,1009.38
2023-01-04T04:05:55.623Z,1009.31
2023-01-04T04:06:55.589Z,1009.28
2023-01-04T04:07:55.593Z,1009.29
2023-01-04T04:08:55.577Z,1009.28
2023-01-04T04:09:55.574Z,1009.24
2023-01-04T04:10:55.562Z,1009.14
2023-01-04T04:11:55.536Z,1009.12
2023-01-04T04:12:55.520Z,1009.09
2023-01-04T04:13:55.511Z,1009.08
2023-01-04T04:14:55.487Z,1009.04
2023-01-04T04:15:55.501Z,1009.07
2023-01-04T04:16:55.543Z,1009.08
2023-01-04T04:17:55.465Z,1009.04
2023-01-04T04:18:55.453Z,1009.02
2023-01-04T04:19:55.426Z,1009.02
2023-01-04T04:20:55.413Z,1009.07
2023-01-04T04:21:55.436Z,1009.02
2023-01-04T04:22:55.409Z,1008.93
2023-01-04T04:23:55.393Z,1008.95
2023-01-04T04:24:55.355Z,1008.91
2023-01-04T04:25:55.396Z,1008.95
2023-01-04T04:26:55.372Z,1008.94
2023-01-04T04:27:55.328Z,1008.88
2023-01-04T04:28:55.322Z,1008.87
2023-01-04T04:29:55.320Z,1008.89
2023-01-04T04:30:55.285Z,1008.85
2023-01-04T04:31:55.376Z,1008.79
2023-01-04T04:32:55.263Z,1008.78
2023-01-04T04:33:55.262Z,1008.77
2023-01-04T04:34:55.236Z,1008.71
2023-01-04T04:35:55.214Z,1008.71
2023-01-04T04:36:55.211Z,1008.75
2023-01-04T04:37:55.188Z,1008.70
2023-01-04T04:38:55.189Z,1008.72
2023-01-04T04:39:55.190Z,1008.69
2023-01-04T04:40:55.181Z,1008.68
2023-01-04T04:41:55.143Z,1008.68
2023-01-04T04:42:55.121Z,1008.70
2023-01-04T04:43:55.136Z,1008.66
2023-01-04T04:44:55.092Z,1008.61
2023-01-04T04:45:55.136Z,1008.61
2023-01-04T04:46:55.073Z,1008.54
2023-01-04T04:47:55.082Z,1008.46
2023-01-04T04:48:55.060Z,1008.45
2023-01-04T04:49:55.107Z,1008.38
2023-01-04T04:50:55.031Z,1008.41
2023-01-04T04:51:55.020Z,1008.47
2023-01-04T04:52:56.396Z,1008.37
2023-01-04T04:53:55.001Z,1008.37
2023-01-04T04:54:54.967Z,1008.36
2023-01-04T04:55:54.968Z,1008.40
2023-01-04T04:56:54.953Z,1008.43
2023-01-04T04:57:54.956Z,1008.35
2023-01-04T04:58:54.991Z,1008.35
2023-01-04T04:59:54.916Z,1008.32
2023-01-04T05:00:54.913Z,1008.32
2023-01-04T05:01:55.156Z,1008.22
2023-01-04T05:02:54.938Z,1008.25
2023-01-04T05:03:54.878Z,1008.25
2023-01-04T05:04:54.863Z,1008.23
2023-01-04T05:05:54.839Z,1008.23
2023-01-04T05:06:54.828Z,1008.25
2023-01-04T05:07:54.810Z,1008.26
2023-01-04T05:08:54.809Z,1008.26
2023-01-04T05:09:54.787Z,1008.18
2023-01-04T05:10:54.773Z,1008.17
2023-01-04T05:11:54.759Z,1008.16
2023-01-04T05:12:57.924Z,1008.14
2023-01-04T05:13:54.749Z,1008.13
2023-01-04T05:14:54.716Z,1008.11
2023-01-04T05:15:54.708Z,1008.05
2023-01-04T05:16:54.771Z,1007.99
2023-01-04T05:17:54.687Z,1007.97
2023-01-04T05:18:54.704Z,1007.94
2023-01-04T05:19:54.672Z,1008.01
2023-01-04T05:20:54.643Z,1008.02
2023-01-04T05:21:54.625Z,1008.10
2023-01-04T05:22:54.631Z,1007.99
2023-01-04T05:23:54.629Z,1007.97
2023-01-04T05:24:54.597Z,1007.88
2023-01-04T05:25:54.585Z,1007.92
2023-01-04T05:26:54.556Z,1007.90
2023-01-04T05:27:54.562Z,1007.90
2023-01-04T05:28:54.598Z,1007.82
2023-01-04T05:29:54.541Z,1007.81
2023-01-04T05:30:54.528Z,1007.82
2023-01-04T05:31:54.569Z,1007.74
2023-01-04T05:32:54.471Z,1007.73
2023-01-04T05:33:54.498Z,1007.69
2023-01-04T05:34:54.461Z,1007.65
2023-01-04T05:35:54.449Z,1007.65
2023-01-04T05:36:54.433Z,1007.68
2023-01-04T05:37:54.424Z,1007.70
2023-01-04T05:38:54.415Z,1007.68
2023-01-04T05:39:54.390Z,1007.67
2023-01-04T05:40:54.393Z,1007.67
2023-01-04T05:41:54.365Z,1007.69
2023-01-04T05:42:54.351Z,1007.65
2023-01-04T05:43:54.350Z,1007.66
2023-01-04T05:44:54.321Z,1007.62
2023-01-04T05:45:54.444Z,1007.61
2023-01-04T05:46:54.299Z,1007.64
2023-01-04T05:47:54.291Z,1007.60
2023-01-04T05:48:54.285Z,1007.62
2023-01-04T05:49:54.280Z,1007.58
2023-01-04T05:50:54.271Z,1007.54
2023-01-04T05:51:54.239Z,1007.51
2023-01-04T05:52:54.221Z,1007.52
2023-01-04T05:53:54.220Z,1007.55
2023-01-04T05:54:54.203Z,1007.49
2023-01-04T05:55:54.180Z,1007.49
2023-01-04T05:56:54.184Z,1007.46
2023-01-04T05:57:54.165Z,1007.41
2023-01-04T05:58:54.157Z,1007.44
2023-01-04T05:59:54.137Z,1007.37
2023-01-04T06:00:54.122Z,1007.36
2023-01-04T06:01:54.200Z,1007.31
2023-01-04T06:02:54.148Z,1007.40
2023-01-04T06:03:54.174Z,1007.34
2023-01-04T06:04:58.679Z,1007.34
2023-01-04T06:05:55.072Z,1007.35
2023-01-04T06:06:54.028Z,1007.39
2023-01-04T06:07:54.029Z,1007.43
2023-01-04T06:08:54.020Z,1007.47
2023-01-04T06:09:54.015Z,1007.40
2023-01-04T06:10:53.978Z,1007.44
2023-01-04T06:11:53.968Z,1007.38
2023-01-04T06:12:53.945Z,1007.40
2023-01-04T06:13:53.957Z,1007.41
2023-01-04T06:14:53.937Z,1007.31
2023-01-04T06:15:53.922Z,1007.38
2023-01-04T06:16:53.943Z,1007.32
2023-01-04T06:17:53.894Z,1007.27
2023-01-04T06:18:53.895Z,1007.24
2023-01-04T06:19:53.868Z,1007.32
2023-01-04T06:20:53.866Z,1007.30
2023-01-04T06:21:53.844Z,1007.25
2023-01-04T06:22:53.815Z,1007.20
2023-01-04T06:23:53.827Z,1007.23
2023-01-04T06:24:53.810Z,1007.19
2023-01-04T06:25:53.792Z,1007.20
2023-01-04T06:26:53.774Z,1007.20
2023-01-04T06:27:53.763Z,1007.18
2023-01-04T06:28:53.764Z,1007.15
2023-01-04T06:29:53.740Z,1007.12
2023-01-04T06:30:53.762Z,1007.12
2023-01-04T06:31:53.716Z,1007.07
2023-01-04T06:32:53.699Z,1007.04
2023-01-04T06:33:53.704Z,1007.07
2023-01-04T06:34:53.673Z,1007.04
2023-01-04T06:35:53.653Z,1007.05
2023-01-04T06:36:53.637Z,1007.05
2023-01-04T06:37:53.628Z,1006.96
2023-01-04T06:38:53.641Z,1006.97
2023-01-04T06:39:53.623Z,1006.93
2023-01-04T06:40:53.595Z,1006.98
2023-01-04T06:41:53.584Z,1006.97
2023-01-04T06:42:53.560Z,1007.02
2023-01-04T06:43:53.565Z,1007.02
2023-01-04T06:44:53.532Z,1006.96
2023-01-04T06:45:53.560Z,1006.97
2023-01-04T06:46:53.510Z,1007.00
2023-01-04T06:47:53.504Z,1007.00
2023-01-04T06:48:53.511Z,1006.92
2023-01-04T06:49:53.478Z,1006.94
2023-01-04T06:50:53.465Z,1006.91
2023-01-04T06:51:53.444Z,1006.87
2023-01-04T06:52:53.436Z,1006.87
2023-01-04T06:53:53.426Z,1006.94
2023-01-04T06:54:53.441Z,1006.82
2023-01-04T06:55:53.406Z,1006.77
2023-01-04T06:56:53.389Z,1006.76
2023-01-04T06:57:59.226Z,1006.70
2023-01-04T06:58:54.367Z,1006.74
2023-01-04T06:59:53.338Z,1006.70
2023-01-04T07:00:53.381Z,1006.73
2023-01-04T07:01:53.497Z,1006.72
2023-01-04T07:03:14.072Z,1006.66
2023-01-04T07:03:54.417Z,1006.61
2023-01-04T07:04:53.342Z,1006.54
2023-01-04T07:05:53.273Z,1006.53
2023-01-04T07:06:53.240Z,1006.56
2023-01-04T07:07:53.227Z,1006.57
2023-01-04T07:08:53.232Z,1006.47
2023-01-04T07:09:53.206Z,1006.42
2023-01-04T07:10:53.187Z,1006.42
2023-01-04T07:11:53.192Z,1006.35
2023-01-04T07:12:53.167Z,1006.30
2023-01-04T07:13:53.187Z,1006.34
2023-01-04T07:14:53.147Z,1006.30
2023-01-04T07:15:53.163Z,1006.27
2023-01-04T07:16:53.106Z,1006.21
2023-01-04T07:17:53.114Z,1006.17
2023-01-04T07:18:53.115Z,1006.17
2023-01-04T07:19:53.088Z,1006.29
2023-01-04T07:20:53.063Z,1006.14
2023-01-04T07:21:53.064Z,1006.15
2023-01-04T07:22:53.035Z,1006.13
2023-01-04T07:23:53.037Z,1006.15
2023-01-04T07:24:53.008Z,1006.15
2023-01-04T07:25:52.998Z,1006.08
2023-01-04T07:26:52.991Z,1006.06
2023-01-04T07:27:52.992Z,1006.05
2023-01-04T07:28:52.968Z,1006.00
2023-01-04T07:29:52.955Z,1006.03
2023-01-04T07:30:53.011Z,1005.98
2023-01-04T07:31:52.922Z,1005.98
2023-01-04T07:32:53.001Z,1005.91
2023-01-04T07:33:53.643Z,1005.98
2023-01-04T07:34:52.879Z,1005.92
2023-01-04T07:35:52.864Z,1005.94
2023-01-04T07:36:52.886Z,1005.99
2023-01-04T07:37:58.304Z,1005.91
2023-01-04T07:38:53.842Z,1005.90
2023-01-04T07:39:52.832Z,1005.91
2023-01-04T07:40:56.716Z,1005.94
2023-01-04T07:41:52.806Z,1005.92
2023-01-04T07:42:52.784Z,1006.02
2023-01-04T07:43:52.775Z,1006.01
2023-01-04T07:44:52.747Z,1005.93
2023-01-04T07:45:52.771Z,1005.99
2023-01-04T07:46:52.780Z,1005.97
2023-01-04T07:47:52.715Z,1006.00
2023-01-04T07:48:52.716Z,1005.91
2023-01-04T07:49:52.681Z,1005.94
2023-01-04T07:50:52.673Z,1005.95
2023-01-04T07:51:52.676Z,1005.90
2023-01-04T07:52:52.654Z,1005.92
2023-01-04T07:53:52.637Z,1005.93
2023-01-04T07:54:52.621Z,1005.83
2023-01-04T07:55:52.598Z,1005.88
2023-01-04T07:56:52.601Z,1005.85
2023-01-04T07:57:52.581Z,1005.78
2023-01-04T07:58:52.582Z,1005.86
2023-01-04T07:59:52.542Z,1005.88
2023-01-04T08:00:52.542Z,1005.82
2023-01-04T08:01:52.621Z,1005.87
2023-01-04T08:02:52.636Z,1005.85
2023-01-04T08:03:52.511Z,1005.80
2023-01-04T08:04:52.554Z,1005.91
2023-01-04T08:05:52.482Z,1005.86
2023-01-04T08:06:52.463Z,1005.82
2023-01-04T08:07:52.460Z,1005.81
2023-01-04T08:08:52.449Z,1005.86
2023-01-04T08:09:52.407Z,1005.80
2023-01-04T08:10:52.408Z,1005.83
2023-01-04T08:11:52.399Z,1005.81
2023-01-04T08:12:52.383Z,1005.78
2023-01-04T08:13:52.403Z,1005.82
2023-01-04T08:14:52.366Z,1005.70
2023-01-04T08:15:52.399Z,1005.75
2023-01-04T08:16:52.330Z,1005.71
2023-01-04T08:17:52.316Z,1005.72
2023-01-04T08:18:52.324Z,1005.70
2023-01-04T08:19:52.297Z,1005.68
2023-01-04T08:20:58.358Z,1005.64
2023-01-04T08:21:53.266Z,1005.67
2023-01-04T08:22:52.278Z,1005.64
2023-01-04T08:23:52.264Z,1005.63
2023-01-04T08:24:52.235Z,1005.63
2023-01-04T08:25:52.207Z,1005.66
2023-01-04T08:26:52.209Z,1005.64
2023-01-04T08:27:52.178Z,1005.74
2023-01-04T08:28:52.228Z,1005.69
2023-01-04T08:29:52.176Z,1005.58
2023-01-04T08:30:52.191Z,1005.58
2023-01-04T08:31:52.214Z,1005.62
2023-01-04T08:32:52.135Z,1005.46
2023-01-04T08:33:52.114Z,1005.46
2023-01-04T08:34:52.102Z,1005.37
2023-01-04T08:35:52.081Z,1005.46
2023-01-04T08:36:52.075Z,1005.31
2023-01-04T08:37:52.053Z,1005.25
2023-01-04T08:39:01.099Z,1005.14
2023-01-04T08:39:53.053Z,1005.05
2023-01-04T08:40:58.610Z,1004.98
2023-01-04T08:42:19.428Z,1004.95
2023-01-04T08:42:53.004Z,1004.90
2023-01-04T08:43:51.982Z,1004.97
2023-01-04T08:44:57.121Z,1004.83
2023-01-04T08:45:52.960Z,1004.67
2023-01-04T08:46:51.989Z,1004.62
2023-01-04T08:47:51.923Z,1004.60
2023-01-04T08:48:51.936Z,1004.72
2023-01-04T08:49:51.894Z,1004.94
2023-01-04T08:50:51.898Z,1004.83
2023-01-04T08:51:51.879Z,1004.89
2023-01-04T08:52:51.888Z,1004.79
2023-01-04T08:53:51.884Z,1004.82
2023-01-04T08:54:51.839Z,1005.06
2023-01-04T08:55:51.826Z,1005.25
2023-01-04T08:56:51.813Z,1005.33
2023-01-04T08:57:51.796Z,1005.39
2023-01-04T08:58:51.803Z,1005.37
2023-01-04T08:59:51.781Z,1005.32
2023-01-04T09:00:51.761Z,1005.27
2023-01-04T09:01:51.934Z,1005.29
2023-01-04T09:02:51.989Z,1005.31
2023-01-04T09:03:51.731Z,1005.14
2023-01-04T09:04:51.820Z,1005.18
2023-01-04T09:05:51.693Z,1005.11
2023-01-04T09:06:51.754Z,1005.17
2023-01-04T09:07:51.699Z,1005.11
2023-01-04T09:08:51.677Z,1005.04
2023-01-04T09:09:51.650Z,1005.10
2023-01-04T09:10:51.629Z,1005.04
2023-01-04T09:11:51.621Z,1005.08
2023-01-04T09:12:51.619Z,1005.09
2023-01-04T09:13:51.639Z,1005.09
2023-01-04T09:14:51.581Z,1005.12
2023-01-04T09:15:51.625Z,1005.08
2023-01-04T09:16:51.559Z,1005.17
2023-01-04T09:18:29.428Z,1005.13
2023-01-04T09:18:52.546Z,1005.09
2023-01-04T09:19:51.507Z,1005.29
2023-01-04T09:20:51.507Z,1005.15
2023-01-04T09:21:51.535Z,1005.14
2023-01-04T09:22:51.490Z,1005.04
2023-01-04T09:23:51.480Z,1005.09
2023-01-04T09:24:51.463Z,1005.03
2023-01-04T09:25:51.438Z,1005.05
2023-01-04T09:26:51.459Z,1005.03
2023-01-04T09:27:51.425Z,1005.02
2023-01-04T09:28:51.414Z,1005.03
2023-01-04T09:29:51.382Z,1004.98
2023-01-04T09:30:51.374Z,1004.98
2023-01-04T09:31:51.385Z,1004.94
2023-01-04T09:32:51.346Z,1004.83
2023-01-04T09:34:52.315Z,1004.89
2023-01-04T09:35:51.330Z,1004.79
2023-01-04T09:36:51.344Z,1004.74
2023-01-04T09:37:51.272Z,1004.79
2023-01-04T09:38:51.294Z,1004.81
2023-01-04T09:39:51.256Z,1004.77
2023-01-04T09:40:51.241Z,1004.86
2023-01-04T09:41:51.248Z,1004.85
2023-01-04T09:42:51.228Z,1004.78
2023-01-04T09:43:52.247Z,1004.85
2023-01-04T09:45:52.189Z,1004.97
2023-01-04T09:46:51.236Z,1004.95
2023-01-04T09:47:51.147Z,1005.01
2023-01-04T09:48:51.174Z,1004.88
2023-01-04T09:49:51.125Z,1004.97
2023-01-04T09:50:51.114Z,1004.91
2023-01-04T09:51:51.103Z,1004.90
2023-01-04T09:52:51.089Z,1004.78
2023-01-04T09:53:51.103Z,1004.83
2023-01-04T09:54:51.095Z,1004.81
2023-01-04T09:55:51.047Z,1004.88
2023-01-04T09:56:51.033Z,1004.87
2023-01-04T09:57:51.033Z,1004.84
2023-01-04T09:58:51.022Z,1004.89
2023-01-04T09:59:51.010Z,1004.72
2023-01-04T10:00:51.085Z,1004.72
2023-01-04T10:01:51.168Z,1004.68
2023-01-04T10:02:51.047Z,1004.67
2023-01-04T10:03:51.036Z,1004.71
2023-01-04T10:04:50.938Z,1004.60
2023-01-04T10:05:50.928Z,1004.72
2023-01-04T10:06:50.920Z,1004.68
2023-01-04T10:07:50.895Z,1004.71
2023-01-04T10:08:50.893Z,1004.73
2023-01-04T10:09:50.880Z,1004.72
2023-01-04T10:10:50.878Z,1004.78
2023-01-04T10:11:50.847Z,1004.78
2023-01-04T10:12:54.014Z,1004.76
2023-01-04T10:13:51.830Z,1004.77
2023-01-04T10:14:50.799Z,1004.70
2023-01-04T10:15:50.860Z,1004.71
2023-01-04T10:21:51.754Z,1004.55
2023-01-04T10:22:50.719Z,1004.55
2023-01-04T10:23:50.688Z,1004.49
2023-01-04T10:24:50.719Z,1004.41
2023-01-04T10:25:50.659Z,1004.38
2023-01-04T10:26:50.646Z,1004.31
2023-01-04T10:27:50.637Z,1004.25
2023-01-04T10:28:50.661Z,1004.25
2023-01-04T10:29:50.616Z,1004.20
2023-01-04T10:30:50.602Z,1004.17
2023-01-04T10:31:50.630Z,1004.13
2023-01-04T10:32:50.574Z,1004.13
2023-01-04T10:33:50.571Z,1004.05
2023-01-04T10:34:50.557Z,1003.95
2023-01-04T10:35:50.517Z,1003.95
2023-01-04T10:36:50.531Z,1003.97
2023-01-04T10:37:50.515Z,1003.91
2023-01-04T10:38:50.505Z,1003.88
2023-01-04T10:39:50.485Z,1003.95
2023-01-04T10:40:50.511Z,1003.94
2023-01-04T10:41:50.468Z,1003.89
2023-01-04T10:42:50.439Z,1003.92
2023-01-04T10:44:12.047Z,1003.90
2023-01-04T10:44:51.406Z,1003.85
2023-01-04T10:45:50.440Z,1003.87
2023-01-04T10:46:50.480Z,1003.82
2023-01-04T10:47:50.370Z,1003.81
2023-01-04T10:48:50.372Z,1003.81
2023-01-04T10:49:50.358Z,1003.68
2023-01-04T10:50:50.335Z,1003.68
2023-01-04T10:51:50.327Z,1003.65
2023-01-04T10:52:50.350Z,1003.59
2023-01-04T10:53:50.304Z,1003.49
2023-01-04T10:54:50.277Z,1003.60
2023-01-04T10:56:24.928Z,1003.63
2023-01-04T10:56:51.250Z,1003.46
2023-01-04T10:57:50.245Z,1003.44
2023-01-04T10:58:50.241Z,1003.42
2023-01-04T10:59:50.217Z,1003.42
2023-01-04T11:00:50.198Z,1003.29
2023-01-04T11:01:50.405Z,1003.33
2023-01-04T11:02:50.375Z,1003.36
2023-01-04T11:03:50.244Z,1003.26
2023-01-04T11:04:50.169Z,1003.22
2023-01-04T11:05:50.131Z,1003.22
2023-01-04T11:06:50.128Z,1003.20
2023-01-04T11:07:50.114Z,1003.23
2023-01-04T11:08:50.104Z,1003.16
2023-01-04T11:09:50.107Z,1003.12
2023-01-04T11:10:50.069Z,1003.20
2023-01-04T11:11:50.066Z,1003.13
2023-01-04T11:12:50.141Z,1003.14
2023-01-04T11:13:50.060Z,1003.21
2023-01-04T11:14:50.017Z,1003.05
2023-01-04T11:15:50.053Z,1003.04
2023-01-04T11:16:50.061Z,1003.03
2023-01-04T11:17:49.982Z,1003.24
2023-01-04T11:18:49.982Z,1003.42
2023-01-04T11:19:49.957Z,1003.42
2023-01-04T11:20:49.941Z,1003.52
2023-01-04T11:21:49.926Z,1003.48
2023-01-04T11:22:50.053Z,1003.35
2023-01-04T11:23:49.942Z,1003.36
2023-01-04T11:25:32.494Z,1003.37
2023-01-04T11:25:55.770Z,1003.31
2023-01-04T11:26:50.863Z,1003.37
2023-01-04T11:27:49.848Z,1003.37
2023-01-04T11:28:49.842Z,1003.39
2023-01-04T11:29:49.817Z,1003.33
2023-01-04T11:30:49.831Z,1003.30
2023-01-04T11:31:49.976Z,1003.22
2023-01-04T11:32:49.838Z,1003.21
2023-01-04T11:33:49.786Z,1003.06
2023-01-04T11:34:49.807Z,1003.14
2023-01-04T11:35:49.760Z,1003.11
2023-01-04T11:36:49.733Z,1003.06
2023-01-04T11:37:49.725Z,1003.00
2023-01-04T11:38:49.719Z,1002.95
2023-01-04T11:39:49.686Z,1003.01
2023-01-04T11:40:49.701Z,1002.95
2023-01-04T11:41:49.663Z,1002.84
2023-01-04T11:42:49.707Z,1002.73
2023-01-04T11:43:49.686Z,1002.71
2023-01-04T11:44:49.627Z,1002.80
2023-01-04T11:45:49.661Z,1002.90
2023-01-04T11:46:49.635Z,1002.89
2023-01-04T11:47:49.607Z,1002.87
2023-01-04T11:48:49.591Z,1002.91
2023-01-04T11:49:49.559Z,1002.99
2023-01-04T11:50:49.548Z,1002.92
2023-01-04T11:51:49.547Z,1002.95
2023-01-04T11:52:49.550Z,1002.92
2023-01-04T11:53:49.526Z,1002.92
2023-01-04T11:54:49.484Z,1002.95
2023-01-04T11:55:49.485Z,1002.90
2023-01-04T11:56:49.467Z,1002.83
2023-01-04T11:57:49.463Z,1002.89
2023-01-04T11:58:49.477Z,1002.86
2023-01-04T11:59:49.439Z,1002.91
2023-01-04T12:00:49.430Z,1003.01
2023-01-04T12:01:49.439Z,1002.92
2023-01-04T12:03:04.970Z,1002.83
2023-01-04T12:03:50.407Z,1002.88
2023-01-04T12:04:49.374Z,1002.88
2023-01-04T12:05:49.503Z,1002.94
2023-01-04T12:06:49.340Z,1002.92
2023-01-04T12:07:49.332Z,1002.98
2023-01-04T12:08:49.336Z,1002.83
2023-01-04T12:09:49.292Z,1002.89
2023-01-04T12:10:49.335Z,1002.90
2023-01-04T12:11:49.275Z,1002.86
2023-01-04T12:12:49.256Z,1002.95